sensor_id;sensor_type;location;lat;lon;timestamp;P1;durP1;ratioP1;P2;durP2;ratioP2
16093;SDS011;8151;47.824;12.092;2022-11-30T00:01:37;23.27;;;13.10;;
16093;SDS011;8151;47.824;12.092;2022-11-30T00:04:06;29.03;;;13.10;;
16093;SDS011;8151;47.824;12.092;2022-11-30T00:06:46;27.93;;;13.67;;
16093;SDS011;8151;47.824;12.092;2022-11-30T00:09:14;25.80;;;14.13;;
16093;SDS011;8151;47.824;12.092;2022-11-30T00:11:43;23.43;;;13.73;;
16093;SDS011;8151;47.824;12.092;2022-11-30T00:14:11;29.97;;;13.53;;
16093;SDS011;8151;47.824;12.092;2022-11-30T00:16:40;22.33;;;12.70;;
16093;SDS011;8151;47.824;12.092;2022-11-30T00:19:08;24.53;;;12.87;;
16093;SDS011;8151;47.824;12.092;2022-11-30T00:21:36;27.23;;;13.73;;
16093;SDS011;8151;47.824;12.092;2022-11-30T00:24:06;28.87;;;13.30;;
16093;SDS011;8151;47.824;12.092;2022-11-30T00:26:37;25.30;;;13.27;;
16093;SDS011;8151;47.824;12.092;2022-11-30T00:29:05;26.40;;;13.20;;
16093;SDS011;8151;47.824;12.092;2022-11-30T00:31:34;30.83;;;14.13;;
16093;SDS011;8151;47.824;12.092;2022-11-30T00:34:02;27.33;;;14.07;;
16093;SDS011;8151;47.824;12.092;2022-11-30T00:36:30;24.90;;;13.90;;
16093;SDS011;8151;47.824;12.092;2022-11-30T00:38:59;23.73;;;13.00;;
16093;SDS011;8151;47.824;12.092;2022-11-30T00:41:28;26.60;;;13.27;;
16093;SDS011;8151;47.824;12.092;2022-11-30T00:43:57;26.30;;;14.90;;
16093;SDS011;8151;47.824;12.092;2022-11-30T00:46:25;23.90;;;13.50;;
16093;SDS011;8151;47.824;12.092;2022-11-30T00:48:53;27.93;;;14.07;;
16093;SDS011;8151;47.824;12.092;2022-11-30T00:51:22;28.50;;;13.53;;
16093;SDS011;8151;47.824;12.092;2022-11-30T00:53:50;26.10;;;13.70;;
16093;SDS011;8151;47.824;12.092;2022-11-30T00:56:19;25.77;;;14.13;;
16093;SDS011;8151;47.824;12.092;2022-11-30T00:58:51;29.67;;;14.17;;
16093;SDS011;8151;47.824;12.092;2022-11-30T01:01:20;30.23;;;13.93;;
16093;SDS011;8151;47.824;12.092;2022-11-30T01:03:48;25.00;;;13.30;;
16093;SDS011;8151;47.824;12.092;2022-11-30T01:06:16;29.17;;;13.73;;
16093;SDS011;8151;47.824;12.092;2022-11-30T01:08:45;27.80;;;13.50;;
16093;SDS011;8151;47.824;12.092;2022-11-30T01:11:15;35.20;;;15.07;;
16093;SDS011;8151;47.824;12.092;2022-11-30T01:13:44;32.50;;;15.03;;
16093;SDS011;8151;47.824;12.092;2022-11-30T01:19:48;25.93;;;13.30;;
16093;SDS011;8151;47.824;12.092;2022-11-30T01:22:17;31.13;;;14.03;;
16093;SDS011;8151;47.824;12.092;2022-11-30T01:24:45;28.17;;;13.73;;
16093;SDS011;8151;47.824;12.092;2022-11-30T01:27:14;30.10;;;13.53;;
16093;SDS011;8151;47.824;12.092;2022-11-30T01:29:42;28.97;;;14.53;;
16093;SDS011;8151;47.824;12.092;2022-11-30T01:32:12;30.03;;;14.60;;
16093;SDS011;8151;47.824;12.092;2022-11-30T01:34:40;30.43;;;15.20;;
16093;SDS011;8151;47.824;12.092;2022-11-30T01:37:09;28.70;;;14.00;;
16093;SDS011;8151;47.824;12.092;2022-11-30T01:39:38;28.30;;;14.13;;
16093;SDS011;8151;47.824;12.092;2022-11-30T01:42:08;27.73;;;13.60;;
16093;SDS011;8151;47.824;12.092;2022-11-30T01:44:51;30.20;;;14.13;;
16093;SDS011;8151;47.824;12.092;2022-11-30T01:47:25;30.10;;;14.70;;
16093;SDS011;8151;47.824;12.092;2022-11-30T01:50:00;29.50;;;13.67;;
16093;SDS011;8151;47.824;12.092;2022-11-30T01:52:34;25.53;;;13.17;;
16093;SDS011;8151;47.824;12.092;2022-11-30T01:55:07;27.17;;;13.60;;
16093;SDS011;8151;47.824;12.092;2022-11-30T01:57:42;25.87;;;13.50;;
16093;SDS011;8151;47.824;12.092;2022-11-30T02:00:14;27.10;;;14.03;;
16093;SDS011;8151;47.824;12.092;2022-11-30T02:02:48;28.77;;;13.70;;
16093;SDS011;8151;47.824;12.092;2022-11-30T02:05:22;26.03;;;14.47;;
16093;SDS011;8151;47.824;12.092;2022-11-30T02:07:52;29.10;;;13.90;;
16093;SDS011;8151;47.824;12.092;2022-11-30T02:10:23;28.57;;;14.33;;
16093;SDS011;8151;47.824;12.092;2022-11-30T02:16:00;27.10;;;13.83;;
16093;SDS011;8151;47.824;12.092;2022-11-30T02:18:40;25.43;;;13.87;;
16093;SDS011;8151;47.824;12.092;2022-11-30T02:21:21;27.37;;;14.03;;
16093;SDS011;8151;47.824;12.092;2022-11-30T02:24:08;29.50;;;14.47;;
16093;SDS011;8151;47.824;12.092;2022-11-30T02:27:01;32.20;;;13.90;;
16093;SDS011;8151;47.824;12.092;2022-11-30T02:29:40;29.13;;;14.73;;
16093;SDS011;8151;47.824;12.092;2022-11-30T02:32:11;27.47;;;13.73;;
16093;SDS011;8151;47.824;12.092;2022-11-30T02:34:45;29.33;;;13.83;;
16093;SDS011;8151;47.824;12.092;2022-11-30T02:37:15;28.97;;;13.97;;
16093;SDS011;8151;47.824;12.092;2022-11-30T02:39:45;28.53;;;13.70;;
16093;SDS011;8151;47.824;12.092;2022-11-30T02:42:13;33.23;;;14.43;;
16093;SDS011;8151;47.824;12.092;2022-11-30T02:44:44;31.03;;;15.00;;
16093;SDS011;8151;47.824;12.092;2022-11-30T02:47:18;28.33;;;14.10;;
16093;SDS011;8151;47.824;12.092;2022-11-30T02:49:53;34.20;;;15.03;;
16093;SDS011;8151;47.824;12.092;2022-11-30T02:52:25;27.37;;;14.60;;
16093;SDS011;8151;47.824;12.092;2022-11-30T02:54:59;28.10;;;13.53;;
16093;SDS011;8151;47.824;12.092;2022-11-30T02:57:27;28.30;;;13.27;;
16093;SDS011;8151;47.824;12.092;2022-11-30T02:59:58;35.23;;;16.30;;
16093;SDS011;8151;47.824;12.092;2022-11-30T03:02:29;29.47;;;14.13;;
16093;SDS011;8151;47.824;12.092;2022-11-30T03:04:57;38.43;;;14.90;;
16093;SDS011;8151;47.824;12.092;2022-11-30T03:07:25;30.67;;;14.77;;
16093;SDS011;8151;47.824;12.092;2022-11-30T03:09:54;32.37;;;15.07;;
16093;SDS011;8151;47.824;12.092;2022-11-30T03:12:22;29.87;;;16.00;;
16093;SDS011;8151;47.824;12.092;2022-11-30T03:14:51;31.30;;;14.97;;
16093;SDS011;8151;47.824;12.092;2022-11-30T03:17:21;33.23;;;15.53;;
16093;SDS011;8151;47.824;12.092;2022-11-30T03:19:49;31.20;;;15.13;;
16093;SDS011;8151;47.824;12.092;2022-11-30T03:22:17;33.80;;;15.27;;
16093;SDS011;8151;47.824;12.092;2022-11-30T03:24:49;32.43;;;15.33;;
16093;SDS011;8151;47.824;12.092;2022-11-30T03:27:18;33.47;;;15.03;;
16093;SDS011;8151;47.824;12.092;2022-11-30T03:29:46;30.97;;;15.37;;
16093;SDS011;8151;47.824;12.092;2022-11-30T03:32:14;31.30;;;15.60;;
16093;SDS011;8151;47.824;12.092;2022-11-30T03:34:44;38.07;;;15.27;;
16093;SDS011;8151;47.824;12.092;2022-11-30T03:37:13;36.60;;;15.57;;
16093;SDS011;8151;47.824;12.092;2022-11-30T03:39:41;32.00;;;15.27;;
16093;SDS011;8151;47.824;12.092;2022-11-30T03:42:10;27.10;;;15.00;;
16093;SDS011;8151;47.824;12.092;2022-11-30T03:44:38;31.80;;;14.77;;
16093;SDS011;8151;47.824;12.092;2022-11-30T03:47:07;33.17;;;15.37;;
16093;SDS011;8151;47.824;12.092;2022-11-30T03:49:35;35.03;;;15.60;;
16093;SDS011;8151;47.824;12.092;2022-11-30T03:52:05;36.83;;;15.30;;
16093;SDS011;8151;47.824;12.092;2022-11-30T03:54:33;38.00;;;17.10;;
16093;SDS011;8151;47.824;12.092;2022-11-30T03:57:01;35.30;;;16.87;;
16093;SDS011;8151;47.824;12.092;2022-11-30T03:59:30;34.53;;;16.80;;
16093;SDS011;8151;47.824;12.092;2022-11-30T04:01:58;36.00;;;16.63;;
16093;SDS011;8151;47.824;12.092;2022-11-30T04:04:27;33.20;;;17.20;;
16093;SDS011;8151;47.824;12.092;2022-11-30T04:06:55;31.13;;;15.67;;
16093;SDS011;8151;47.824;12.092;2022-11-30T04:09:25;34.93;;;16.40;;
16093;SDS011;8151;47.824;12.092;2022-11-30T04:11:53;38.93;;;17.20;;
16093;SDS011;8151;47.824;12.092;2022-11-30T04:14:21;31.90;;;15.97;;
16093;SDS011;8151;47.824;12.092;2022-11-30T04:16:50;34.53;;;15.97;;
16093;SDS011;8151;47.824;12.092;2022-11-30T04:19:18;32.90;;;16.07;;
16093;SDS011;8151;47.824;12.092;2022-11-30T04:21:46;32.20;;;16.30;;
16093;SDS011;8151;47.824;12.092;2022-11-30T04:24:15;36.33;;;18.07;;
16093;SDS011;8151;47.824;12.092;2022-11-30T04:26:45;29.20;;;16.47;;
16093;SDS011;8151;47.824;12.092;2022-11-30T04:29:13;32.17;;;16.87;;
16093;SDS011;8151;47.824;12.092;2022-11-30T04:31:42;35.53;;;17.30;;
16093;SDS011;8151;47.824;12.092;2022-11-30T04:34:10;35.10;;;16.73;;
16093;SDS011;8151;47.824;12.092;2022-11-30T04:36:39;33.67;;;16.73;;
16093;SDS011;8151;47.824;12.092;2022-11-30T04:39:07;35.30;;;17.20;;
16093;SDS011;8151;47.824;12.092;2022-11-30T04:41:36;39.67;;;17.47;;
16093;SDS011;8151;47.824;12.092;2022-11-30T04:44:05;32.27;;;16.27;;
16093;SDS011;8151;47.824;12.092;2022-11-30T04:46:35;33.23;;;16.57;;
16093;SDS011;8151;47.824;12.092;2022-11-30T04:49:03;37.67;;;16.77;;
16093;SDS011;8151;47.824;12.092;2022-11-30T04:51:32;35.40;;;18.00;;
16093;SDS011;8151;47.824;12.092;2022-11-30T04:54:00;31.57;;;17.73;;
16093;SDS011;8151;47.824;12.092;2022-11-30T04:56:33;38.80;;;17.33;;
16093;SDS011;8151;47.824;12.092;2022-11-30T04:59:01;40.47;;;20.00;;
16093;SDS011;8151;47.824;12.092;2022-11-30T05:01:31;49.20;;;24.20;;
16093;SDS011;8151;47.824;12.092;2022-11-30T05:03:59;62.43;;;31.13;;
16093;SDS011;8151;47.824;12.092;2022-11-30T05:06:28;41.13;;;20.90;;
16093;SDS011;8151;47.824;12.092;2022-11-30T05:08:56;42.70;;;22.47;;
16093;SDS011;8151;47.824;12.092;2022-11-30T05:11:25;41.57;;;20.63;;
16093;SDS011;8151;47.824;12.092;2022-11-30T05:13:53;40.50;;;22.57;;
16093;SDS011;8151;47.824;12.092;2022-11-30T05:16:22;35.60;;;18.50;;
16093;SDS011;8151;47.824;12.092;2022-11-30T05:18:52;33.77;;;17.83;;
16093;SDS011;8151;47.824;12.092;2022-11-30T05:21:20;34.73;;;18.10;;
16093;SDS011;8151;47.824;12.092;2022-11-30T05:23:48;29.40;;;16.00;;
16093;SDS011;8151;47.824;12.092;2022-11-30T05:26:18;32.50;;;16.73;;
16093;SDS011;8151;47.824;12.092;2022-11-30T05:28:46;33.40;;;17.47;;
16093;SDS011;8151;47.824;12.092;2022-11-30T05:31:15;35.87;;;17.53;;
16093;SDS011;8151;47.824;12.092;2022-11-30T05:33:43;35.10;;;20.03;;
16093;SDS011;8151;47.824;12.092;2022-11-30T05:36:18;31.47;;;17.03;;
16093;SDS011;8151;47.824;12.092;2022-11-30T05:38:47;31.73;;;16.77;;
16093;SDS011;8151;47.824;12.092;2022-11-30T05:41:16;33.50;;;16.70;;
16093;SDS011;8151;47.824;12.092;2022-11-30T05:43:44;36.80;;;17.20;;
16093;SDS011;8151;47.824;12.092;2022-11-30T05:46:12;39.07;;;19.13;;
16093;SDS011;8151;47.824;12.092;2022-11-30T05:48:41;35.87;;;17.83;;
16093;SDS011;8151;47.824;12.092;2022-11-30T05:51:10;32.13;;;17.57;;
16093;SDS011;8151;47.824;12.092;2022-11-30T05:53:42;37.50;;;18.33;;
16093;SDS011;8151;47.824;12.092;2022-11-30T05:56:12;33.17;;;17.77;;
16093;SDS011;8151;47.824;12.092;2022-11-30T05:58:41;35.07;;;18.43;;
16093;SDS011;8151;47.824;12.092;2022-11-30T06:01:16;35.10;;;19.10;;
16093;SDS011;8151;47.824;12.092;2022-11-30T06:03:45;41.87;;;20.90;;
16093;SDS011;8151;47.824;12.092;2022-11-30T06:06:14;42.70;;;20.53;;
16093;SDS011;8151;47.824;12.092;2022-11-30T06:08:45;37.07;;;20.27;;
16093;SDS011;8151;47.824;12.092;2022-11-30T06:11:14;35.70;;;18.57;;
16093;SDS011;8151;47.824;12.092;2022-11-30T06:13:44;36.83;;;20.63;;
16093;SDS011;8151;47.824;12.092;2022-11-30T06:16:12;37.07;;;18.83;;
16093;SDS011;8151;47.824;12.092;2022-11-30T06:18:40;36.90;;;19.10;;
16093;SDS011;8151;47.824;12.092;2022-11-30T06:21:10;43.57;;;20.97;;
16093;SDS011;8151;47.824;12.092;2022-11-30T06:23:39;34.90;;;17.53;;
16093;SDS011;8151;47.824;12.092;2022-11-30T06:26:10;38.80;;;18.43;;
16093;SDS011;8151;47.824;12.092;2022-11-30T06:28:39;36.57;;;19.50;;
16093;SDS011;8151;47.824;12.092;2022-11-30T06:31:13;35.60;;;18.03;;
16093;SDS011;8151;47.824;12.092;2022-11-30T06:33:42;33.97;;;18.33;;
16093;SDS011;8151;47.824;12.092;2022-11-30T06:36:11;35.90;;;18.40;;
16093;SDS011;8151;47.824;12.092;2022-11-30T06:38:39;38.33;;;18.17;;
16093;SDS011;8151;47.824;12.092;2022-11-30T06:41:09;37.37;;;18.37;;
16093;SDS011;8151;47.824;12.092;2022-11-30T06:43:38;37.03;;;18.53;;
16093;SDS011;8151;47.824;12.092;2022-11-30T06:46:07;36.63;;;18.67;;
16093;SDS011;8151;47.824;12.092;2022-11-30T06:48:36;35.73;;;18.93;;
16093;SDS011;8151;47.824;12.092;2022-11-30T06:51:04;40.00;;;17.97;;
16093;SDS011;8151;47.824;12.092;2022-11-30T06:53:34;38.87;;;18.67;;
16093;SDS011;8151;47.824;12.092;2022-11-30T06:56:03;39.93;;;19.97;;
16093;SDS011;8151;47.824;12.092;2022-11-30T06:58:38;37.97;;;19.30;;
16093;SDS011;8151;47.824;12.092;2022-11-30T07:01:07;45.33;;;21.60;;
16093;SDS011;8151;47.824;12.092;2022-11-30T07:03:37;43.03;;;21.03;;
16093;SDS011;8151;47.824;12.092;2022-11-30T07:06:07;73.03;;;41.67;;
16093;SDS011;8151;47.824;12.092;2022-11-30T07:08:36;64.13;;;34.57;;
16093;SDS011;8151;47.824;12.092;2022-11-30T07:11:07;56.00;;;29.50;;
16093;SDS011;8151;47.824;12.092;2022-11-30T07:13:39;53.83;;;25.63;;
16093;SDS011;8151;47.824;12.092;2022-11-30T07:16:07;40.87;;;21.63;;
16093;SDS011;8151;47.824;12.092;2022-11-30T07:18:38;38.73;;;20.13;;
16093;SDS011;8151;47.824;12.092;2022-11-30T07:21:06;40.73;;;19.23;;
16093;SDS011;8151;47.824;12.092;2022-11-30T07:23:35;37.03;;;19.70;;
16093;SDS011;8151;47.824;12.092;2022-11-30T07:26:23;43.53;;;20.87;;
16093;SDS011;8151;47.824;12.092;2022-11-30T07:28:53;39.37;;;20.43;;
16093;SDS011;8151;47.824;12.092;2022-11-30T07:31:25;40.03;;;19.47;;
16093;SDS011;8151;47.824;12.092;2022-11-30T07:33:55;40.73;;;19.70;;
16093;SDS011;8151;47.824;12.092;2022-11-30T07:36:25;35.70;;;20.37;;
16093;SDS011;8151;47.824;12.092;2022-11-30T07:38:55;49.27;;;27.17;;
16093;SDS011;8151;47.824;12.092;2022-11-30T07:41:23;50.47;;;24.93;;
16093;SDS011;8151;47.824;12.092;2022-11-30T07:43:53;39.20;;;21.30;;
16093;SDS011;8151;47.824;12.092;2022-11-30T07:46:22;38.77;;;20.33;;
16093;SDS011;8151;47.824;12.092;2022-11-30T07:48:50;38.93;;;19.57;;
16093;SDS011;8151;47.824;12.092;2022-11-30T07:51:19;42.00;;;20.00;;
16093;SDS011;8151;47.824;12.092;2022-11-30T07:53:49;37.50;;;19.67;;
16093;SDS011;8151;47.824;12.092;2022-11-30T07:56:18;35.67;;;19.23;;
16093;SDS011;8151;47.824;12.092;2022-11-30T07:58:47;38.67;;;18.77;;
16093;SDS011;8151;47.824;12.092;2022-11-30T08:01:19;37.77;;;19.60;;
16093;SDS011;8151;47.824;12.092;2022-11-30T08:03:49;37.00;;;19.17;;
16093;SDS011;8151;47.824;12.092;2022-11-30T08:06:19;41.10;;;19.47;;
16093;SDS011;8151;47.824;12.092;2022-11-30T08:08:58;33.83;;;17.30;;
16093;SDS011;8151;47.824;12.092;2022-11-30T08:11:28;39.50;;;18.97;;
16093;SDS011;8151;47.824;12.092;2022-11-30T08:13:57;36.63;;;19.43;;
16093;SDS011;8151;47.824;12.092;2022-11-30T08:16:27;38.43;;;20.23;;
16093;SDS011;8151;47.824;12.092;2022-11-30T08:18:57;36.60;;;18.17;;
16093;SDS011;8151;47.824;12.092;2022-11-30T08:21:25;39.33;;;20.13;;
16093;SDS011;8151;47.824;12.092;2022-11-30T08:23:54;33.13;;;17.80;;
16093;SDS011;8151;47.824;12.092;2022-11-30T08:26:24;34.07;;;19.27;;
16093;SDS011;8151;47.824;12.092;2022-11-30T08:28:53;32.93;;;17.97;;
16093;SDS011;8151;47.824;12.092;2022-11-30T08:31:23;33.57;;;19.10;;
16093;SDS011;8151;47.824;12.092;2022-11-30T08:33:55;35.57;;;19.03;;
16093;SDS011;8151;47.824;12.092;2022-11-30T08:36:25;36.07;;;19.60;;
16093;SDS011;8151;47.824;12.092;2022-11-30T08:38:55;36.10;;;19.30;;
16093;SDS011;8151;47.824;12.092;2022-11-30T08:41:25;36.87;;;19.03;;
16093;SDS011;8151;47.824;12.092;2022-11-30T08:43:54;35.20;;;19.30;;
16093;SDS011;8151;47.824;12.092;2022-11-30T08:46:22;44.07;;;21.97;;
16093;SDS011;8151;47.824;12.092;2022-11-30T08:49:13;51.57;;;24.20;;
16093;SDS011;8151;47.824;12.092;2022-11-30T08:51:51;39.97;;;20.87;;
16093;SDS011;8151;47.824;12.092;2022-11-30T08:54:42;41.27;;;19.37;;
16093;SDS011;8151;47.824;12.092;2022-11-30T08:57:12;36.20;;;17.80;;
16093;SDS011;8151;47.824;12.092;2022-11-30T08:59:40;36.87;;;20.00;;
16093;SDS011;8151;47.824;12.092;2022-11-30T09:02:09;36.47;;;19.53;;
16093;SDS011;8151;47.824;12.092;2022-11-30T09:04:40;38.60;;;19.53;;
16093;SDS011;8151;47.824;12.092;2022-11-30T09:07:09;39.23;;;19.33;;
16093;SDS011;8151;47.824;12.092;2022-11-30T09:09:37;39.93;;;19.03;;
16093;SDS011;8151;47.824;12.092;2022-11-30T09:12:06;36.03;;;18.90;;
16093;SDS011;8151;47.824;12.092;2022-11-30T09:14:35;37.20;;;18.77;;
16093;SDS011;8151;47.824;12.092;2022-11-30T09:17:03;41.63;;;20.60;;
16093;SDS011;8151;47.824;12.092;2022-11-30T09:19:32;42.70;;;20.27;;
16093;SDS011;8151;47.824;12.092;2022-11-30T09:22:02;37.37;;;19.23;;
16093;SDS011;8151;47.824;12.092;2022-11-30T09:24:30;45.40;;;20.40;;
16093;SDS011;8151;47.824;12.092;2022-11-30T09:26:59;46.20;;;21.20;;
16093;SDS011;8151;47.824;12.092;2022-11-30T09:29:27;38.37;;;19.57;;
16093;SDS011;8151;47.824;12.092;2022-11-30T09:31:56;40.70;;;19.93;;
16093;SDS011;8151;47.824;12.092;2022-11-30T09:34:24;43.37;;;20.30;;
16093;SDS011;8151;47.824;12.092;2022-11-30T09:36:53;50.37;;;21.77;;
16093;SDS011;8151;47.824;12.092;2022-11-30T09:39:22;39.60;;;20.07;;
16093;SDS011;8151;47.824;12.092;2022-11-30T09:42:08;42.27;;;20.90;;
16093;SDS011;8151;47.824;12.092;2022-11-30T09:44:51;40.47;;;20.57;;
16093;SDS011;8151;47.824;12.092;2022-11-30T09:47:30;48.83;;;22.20;;
16093;SDS011;8151;47.824;12.092;2022-11-30T09:50:17;40.70;;;19.13;;
16093;SDS011;8151;47.824;12.092;2022-11-30T09:52:49;40.23;;;20.50;;
16093;SDS011;8151;47.824;12.092;2022-11-30T09:55:24;40.47;;;18.90;;
16093;SDS011;8151;47.824;12.092;2022-11-30T09:57:57;39.00;;;19.67;;
16093;SDS011;8151;47.824;12.092;2022-11-30T10:00:29;44.23;;;20.43;;
16093;SDS011;8151;47.824;12.092;2022-11-30T10:02:58;50.73;;;20.70;;
16093;SDS011;8151;47.824;12.092;2022-11-30T10:05:36;43.40;;;21.30;;
16093;SDS011;8151;47.824;12.092;2022-11-30T10:08:15;41.70;;;21.43;;
16093;SDS011;8151;47.824;12.092;2022-11-30T10:10:57;40.57;;;20.53;;
16093;SDS011;8151;47.824;12.092;2022-11-30T10:13:46;38.73;;;18.80;;
16093;SDS011;8151;47.824;12.092;2022-11-30T10:16:30;40.97;;;20.37;;
16093;SDS011;8151;47.824;12.092;2022-11-30T10:19:11;45.87;;;20.13;;
16093;SDS011;8151;47.824;12.092;2022-11-30T10:21:55;39.30;;;19.23;;
16093;SDS011;8151;47.824;12.092;2022-11-30T10:24:38;38.07;;;19.50;;
16093;SDS011;8151;47.824;12.092;2022-11-30T10:27:27;44.67;;;21.17;;
16093;SDS011;8151;47.824;12.092;2022-11-30T10:30:10;40.53;;;20.20;;
16093;SDS011;8151;47.824;12.092;2022-11-30T10:32:41;36.13;;;19.20;;
16093;SDS011;8151;47.824;12.092;2022-11-30T10:35:16;43.93;;;20.03;;
16093;SDS011;8151;47.824;12.092;2022-11-30T10:37:50;42.20;;;20.27;;
16093;SDS011;8151;47.824;12.092;2022-11-30T10:40:22;41.77;;;20.47;;
16093;SDS011;8151;47.824;12.092;2022-11-30T10:43:12;40.30;;;18.67;;
16093;SDS011;8151;47.824;12.092;2022-11-30T10:45:46;40.40;;;20.97;;
16093;SDS011;8151;47.824;12.092;2022-11-30T10:48:18;40.13;;;20.00;;
16093;SDS011;8151;47.824;12.092;2022-11-30T10:50:51;38.83;;;19.90;;
16093;SDS011;8151;47.824;12.092;2022-11-30T10:53:20;38.27;;;19.67;;
16093;SDS011;8151;47.824;12.092;2022-11-30T10:55:51;39.03;;;20.77;;
16093;SDS011;8151;47.824;12.092;2022-11-30T10:58:28;38.67;;;20.77;;
16093;SDS011;8151;47.824;12.092;2022-11-30T11:01:02;42.63;;;19.67;;
16093;SDS011;8151;47.824;12.092;2022-11-30T11:03:32;38.13;;;19.37;;
16093;SDS011;8151;47.824;12.092;2022-11-30T11:06:01;39.77;;;20.53;;
16093;SDS011;8151;47.824;12.092;2022-11-30T11:08:32;56.80;;;29.17;;
16093;SDS011;8151;47.824;12.092;2022-11-30T11:11:01;40.43;;;20.13;;
16093;SDS011;8151;47.824;12.092;2022-11-30T11:13:38;36.63;;;18.93;;
16093;SDS011;8151;47.824;12.092;2022-11-30T11:16:09;35.33;;;19.60;;
16093;SDS011;8151;47.824;12.092;2022-11-30T11:18:50;44.20;;;21.13;;
16093;SDS011;8151;47.824;12.092;2022-11-30T11:21:20;37.33;;;19.20;;
16093;SDS011;8151;47.824;12.092;2022-11-30T11:23:50;44.07;;;20.90;;
16093;SDS011;8151;47.824;12.092;2022-11-30T11:26:22;37.87;;;19.93;;
16093;SDS011;8151;47.824;12.092;2022-11-30T11:28:53;30.77;;;16.97;;
16093;SDS011;8151;47.824;12.092;2022-11-30T11:31:31;34.07;;;19.03;;
16093;SDS011;8151;47.824;12.092;2022-11-30T11:34:03;37.77;;;19.40;;
16093;SDS011;8151;47.824;12.092;2022-11-30T11:36:46;31.00;;;17.07;;
16093;SDS011;8151;47.824;12.092;2022-11-30T11:39:32;36.37;;;19.90;;
16093;SDS011;8151;47.824;12.092;2022-11-30T11:42:00;38.23;;;19.13;;
16093;SDS011;8151;47.824;12.092;2022-11-30T11:44:30;37.63;;;21.50;;
16093;SDS011;8151;47.824;12.092;2022-11-30T11:47:00;35.23;;;18.67;;
16093;SDS011;8151;47.824;12.092;2022-11-30T11:49:30;35.07;;;18.33;;
16093;SDS011;8151;47.824;12.092;2022-11-30T11:52:02;29.17;;;16.67;;
16093;SDS011;8151;47.824;12.092;2022-11-30T11:54:32;33.90;;;18.57;;
16093;SDS011;8151;47.824;12.092;2022-11-30T11:57:06;30.97;;;16.87;;
16093;SDS011;8151;47.824;12.092;2022-11-30T11:59:38;33.00;;;18.07;;
16093;SDS011;8151;47.824;12.092;2022-11-30T12:02:17;31.13;;;18.27;;
16093;SDS011;8151;47.824;12.092;2022-11-30T12:04:54;30.77;;;18.10;;
16093;SDS011;8151;47.824;12.092;2022-11-30T12:07:26;31.67;;;17.23;;
16093;SDS011;8151;47.824;12.092;2022-11-30T12:10:12;35.17;;;18.10;;
16093;SDS011;8151;47.824;12.092;2022-11-30T12:13:12;30.10;;;16.93;;
16093;SDS011;8151;47.824;12.092;2022-11-30T12:15:49;31.97;;;17.40;;
16093;SDS011;8151;47.824;12.092;2022-11-30T12:18:27;29.47;;;15.93;;
16093;SDS011;8151;47.824;12.092;2022-11-30T12:21:01;30.77;;;16.27;;
16093;SDS011;8151;47.824;12.092;2022-11-30T12:23:41;27.77;;;16.60;;
16093;SDS011;8151;47.824;12.092;2022-11-30T12:26:28;31.23;;;17.73;;
16093;SDS011;8151;47.824;12.092;2022-11-30T12:29:20;31.97;;;17.70;;
16093;SDS011;8151;47.824;12.092;2022-11-30T12:32:06;29.87;;;16.07;;
16093;SDS011;8151;47.824;12.092;2022-11-30T12:34:48;27.40;;;15.13;;
16093;SDS011;8151;47.824;12.092;2022-11-30T12:37:31;27.93;;;15.77;;
16093;SDS011;8151;47.824;12.092;2022-11-30T12:40:18;29.87;;;16.00;;
16093;SDS011;8151;47.824;12.092;2022-11-30T12:42:55;27.63;;;15.67;;
16093;SDS011;8151;47.824;12.092;2022-11-30T12:45:32;27.97;;;15.63;;
16093;SDS011;8151;47.824;12.092;2022-11-30T12:48:07;26.80;;;15.20;;
16093;SDS011;8151;47.824;12.092;2022-11-30T12:50:48;26.17;;;14.20;;
16093;SDS011;8151;47.824;12.092;2022-11-30T12:53:26;27.17;;;14.20;;
16093;SDS011;8151;47.824;12.092;2022-11-30T12:56:03;26.07;;;14.43;;
16093;SDS011;8151;47.824;12.092;2022-11-30T12:58:42;29.80;;;14.90;;
16093;SDS011;8151;47.824;12.092;2022-11-30T13:01:23;30.37;;;16.93;;
16093;SDS011;8151;47.824;12.092;2022-11-30T13:04:08;32.50;;;16.40;;
16093;SDS011;8151;47.824;12.092;2022-11-30T13:06:45;28.93;;;16.37;;
16093;SDS011;8151;47.824;12.092;2022-11-30T13:09:21;31.80;;;16.43;;
16093;SDS011;8151;47.824;12.092;2022-11-30T13:11:55;32.77;;;16.40;;
16093;SDS011;8151;47.824;12.092;2022-11-30T13:14:26;28.53;;;15.57;;
16093;SDS011;8151;47.824;12.092;2022-11-30T13:17:00;23.20;;;14.13;;
16093;SDS011;8151;47.824;12.092;2022-11-30T13:19:41;24.60;;;13.93;;
16093;SDS011;8151;47.824;12.092;2022-11-30T13:22:16;31.40;;;15.10;;
16093;SDS011;8151;47.824;12.092;2022-11-30T13:24:52;28.37;;;15.77;;
16093;SDS011;8151;47.824;12.092;2022-11-30T13:27:28;29.10;;;15.83;;
16093;SDS011;8151;47.824;12.092;2022-11-30T13:30:08;28.87;;;16.13;;
16093;SDS011;8151;47.824;12.092;2022-11-30T13:32:46;29.17;;;16.50;;
16093;SDS011;8151;47.824;12.092;2022-11-30T13:35:40;29.93;;;15.90;;
16093;SDS011;8151;47.824;12.092;2022-11-30T13:38:19;27.93;;;17.87;;
16093;SDS011;8151;47.824;12.092;2022-11-30T13:41:05;31.90;;;17.40;;
16093;SDS011;8151;47.824;12.092;2022-11-30T13:43:35;31.03;;;17.80;;
16093;SDS011;8151;47.824;12.092;2022-11-30T13:46:12;30.23;;;17.20;;
16093;SDS011;8151;47.824;12.092;2022-11-30T13:48:42;31.33;;;16.87;;
16093;SDS011;8151;47.824;12.092;2022-11-30T13:51:15;30.57;;;17.43;;
16093;SDS011;8151;47.824;12.092;2022-11-30T14:00:44;32.87;;;16.13;;
16093;SDS011;8151;47.824;12.092;2022-11-30T14:03:28;25.67;;;15.50;;
16093;SDS011;8151;47.824;12.092;2022-11-30T14:05:57;26.20;;;15.27;;
16093;SDS011;8151;47.824;12.092;2022-11-30T14:08:32;26.27;;;15.17;;
16093;SDS011;8151;47.824;12.092;2022-11-30T14:17:22;27.00;;;15.13;;
16093;SDS011;8151;47.824;12.092;2022-11-30T14:19:54;27.33;;;15.80;;
16093;SDS011;8151;47.824;12.092;2022-11-30T14:22:26;27.97;;;16.13;;
16093;SDS011;8151;47.824;12.092;2022-11-30T14:24:57;22.77;;;14.53;;
16093;SDS011;8151;47.824;12.092;2022-11-30T14:27:28;27.17;;;15.13;;
16093;SDS011;8151;47.824;12.092;2022-11-30T14:29:58;29.07;;;15.57;;
16093;SDS011;8151;47.824;12.092;2022-11-30T14:32:32;26.77;;;15.53;;
16093;SDS011;8151;47.824;12.092;2022-11-30T14:35:06;24.23;;;14.87;;
16093;SDS011;8151;47.824;12.092;2022-11-30T14:37:42;29.50;;;15.63;;
16093;SDS011;8151;47.824;12.092;2022-11-30T14:40:15;27.43;;;16.53;;
16093;SDS011;8151;47.824;12.092;2022-11-30T14:42:46;27.20;;;15.83;;
16093;SDS011;8151;47.824;12.092;2022-11-30T14:45:17;31.27;;;14.43;;
16093;SDS011;8151;47.824;12.092;2022-11-30T14:47:49;24.40;;;14.33;;
16093;SDS011;8151;47.824;12.092;2022-11-30T14:50:21;27.50;;;15.27;;
16093;SDS011;8151;47.824;12.092;2022-11-30T14:52:53;26.53;;;14.67;;
16093;SDS011;8151;47.824;12.092;2022-11-30T14:55:32;24.87;;;14.27;;
16093;SDS011;8151;47.824;12.092;2022-11-30T14:58:11;27.50;;;13.90;;
16093;SDS011;8151;47.824;12.092;2022-11-30T15:00:47;26.27;;;15.17;;
16093;SDS011;8151;47.824;12.092;2022-11-30T15:03:18;25.73;;;13.83;;
16093;SDS011;8151;47.824;12.092;2022-11-30T15:05:52;21.63;;;13.57;;
16093;SDS011;8151;47.824;12.092;2022-11-30T15:08:31;21.80;;;13.47;;
16093;SDS011;8151;47.824;12.092;2022-11-30T15:11:05;28.03;;;13.77;;